Aérodrome :
LOGIN :

S'inscrire | Disclaimer

   EN    FR    IT 

 










Légende :    VFR   VFR Marginal   IFR   IFR Intensif   IFR Très Intensif
Visi : 
Plafond : 
>= 8 km
>= 3000ft
5 à 8 km
1000 à 3000 ft
1500m à 5 km
500 à 1000 ft
800 à 1500m
200 à 500 ft
< 800m
< 200 ft
Symboles :   Orages  Brouillard  Fortes neiges  Fortes précipitations  Vent > 20 kt
SIGMETs :   Divers  Orages  Givrage  Turbulence  Onde Orograph.  Cendres Volcan.







- Altitude de l'aérodrome : 203 ft
- Code IATA : XMJ
- Voir les cartes d'approche


LFBM - Mont-De-Marsan

DERNIER METAR :
  • 192000Z AUTO VRB02KT 9999 ////// 13/12 Q1012

METARs EXPIRÉS :
  • 191930Z AUTO 00000KT 9999 ////// 14/12 Q1012
  • 191900Z AUTO 00000KT 9999 ////// 14/13 Q1012
  • 191830Z AUTO 00000KT 9999 ////// 15/13 Q1012
  • 191800Z AUTO 00000KT 9999 ////// 16/13 Q1012
  • 191730Z AUTO 00000KT 9999 ////// 17/13 Q1012

TAF TAF LFBM
Valide du 19 à 15h jusqu'au 20 à 15h UTC


191400Z 1915/2015 25005KT 9999 BKN025
BECMG 2001/2003 BKN010
BECMG 2012/2014 FEW030
Pas de NOTAMs connus pour ce terrain.
2 SIGMETs publiés pour la FIR Bordeaux (LFBB) :
 
Turbulence forte
LFBB SIGMET 9 VALID 191800/192200 LFPW
LFBB BORDEAUX FIR/UIR SEV TURB FCST SW OF LINE N4245 E00015 - N4545 W00145 FL220/310 MOV E 30KT WKN=
Orages noyés dans la masse
LFBB SIGMET 10 VALID 191900/192100 LFPW
LFBB BORDEAUX FIR/UIR EMBD TS OBS S OF N4345 AND E OF E00215 TOP FL370 STNR NC=



MET'MAP, la Météo Aéronautique d'un coup d'oeil ! - Copyright ORBIFLY Décembre 2007 - Disclaimer

ORBIFLY MET'MAP TEAM :

Programmation & Développement : Alexandra Zaïnal
Conception & Développement : Baudouin d'Aumeries
Co-Programmation & Développement : Marc-Olivier Méhu
Soutien technique & logistique : Manuel Goepfert

Contact : metmap@orbifly.com




SOURCES & CREDITS :

   NOAA